createdAt,value
2023-05-19T00:00:48.165Z,1.60
2023-05-19T00:01:45.725Z,1.90
2023-05-19T00:02:45.794Z,1.70
2023-05-19T00:03:45.679Z,2.10
2023-05-19T00:04:45.740Z,2.10
2023-05-19T00:05:45.865Z,1.60
2023-05-19T00:06:45.670Z,1.90
2023-05-19T00:07:45.674Z,1.60
2023-05-19T00:08:45.645Z,1.70
2023-05-19T00:09:45.634Z,2.00
2023-05-19T00:10:45.676Z,1.80
2023-05-19T00:11:45.668Z,2.00
2023-05-19T00:12:45.596Z,2.10
2023-05-19T00:13:45.571Z,2.10
2023-05-19T00:14:45.559Z,2.10
2023-05-19T00:15:45.628Z,1.60
2023-05-19T00:16:45.578Z,1.60
2023-05-19T00:17:45.581Z,2.10
2023-05-19T00:18:45.539Z,1.60
2023-05-19T00:19:45.497Z,1.50
2023-05-19T00:20:45.543Z,2.20
2023-05-19T00:21:45.508Z,1.40
2023-05-19T00:22:45.508Z,1.80
2023-05-19T00:23:45.470Z,1.40
2023-05-19T00:24:45.478Z,1.80
2023-05-19T00:25:45.480Z,1.40
2023-05-19T00:26:45.450Z,1.50
2023-05-19T00:27:45.431Z,1.40
2023-05-19T00:28:45.430Z,1.80
2023-05-19T00:29:45.423Z,1.90
2023-05-19T00:30:45.417Z,1.70
2023-05-19T00:31:45.428Z,1.60
2023-05-19T00:32:45.393Z,1.90
2023-05-19T00:33:45.385Z,1.90
2023-05-19T00:34:45.393Z,1.30
2023-05-19T00:35:45.340Z,1.70
2023-05-19T00:36:45.344Z,1.50
2023-05-19T00:37:45.324Z,1.60
2023-05-19T00:38:45.325Z,1.50
2023-05-19T00:39:45.351Z,1.70
2023-05-19T00:40:45.294Z,2.40
2023-05-19T00:41:45.284Z,1.80
2023-05-19T00:42:45.268Z,1.50
2023-05-19T00:43:45.294Z,1.70
2023-05-19T00:44:45.255Z,1.30
2023-05-19T00:45:45.255Z,1.60
2023-05-19T00:46:45.303Z,1.80
2023-05-19T00:47:45.284Z,1.80
2023-05-19T00:48:45.225Z,1.80
2023-05-19T00:49:45.233Z,1.70
2023-05-19T00:50:45.183Z,1.80
2023-05-19T00:51:45.207Z,2.00
2023-05-19T00:52:52.951Z,2.10
2023-05-19T00:53:45.169Z,1.80
2023-05-19T00:54:45.152Z,1.80
2023-05-19T00:55:45.134Z,1.80
2023-05-19T00:56:45.146Z,1.70
2023-05-19T00:57:45.135Z,1.80
2023-05-19T00:58:45.150Z,1.60
2023-05-19T00:59:45.115Z,1.40
2023-05-19T01:00:45.131Z,1.70
2023-05-19T01:01:45.089Z,2.10
2023-05-19T01:02:45.189Z,2.10
2023-05-19T01:03:45.171Z,2.40
2023-05-19T01:04:45.083Z,1.80
2023-05-19T01:05:45.034Z,1.80
2023-05-19T01:06:45.032Z,1.30
2023-05-19T01:07:45.038Z,1.90
2023-05-19T01:08:45.021Z,1.70
2023-05-19T01:09:45.000Z,1.50
2023-05-19T01:10:44.989Z,1.80
2023-05-19T01:11:44.994Z,1.90
2023-05-19T01:12:45.008Z,1.90
2023-05-19T01:13:45.001Z,1.70
2023-05-19T01:14:44.970Z,2.50
2023-05-19T01:15:44.944Z,1.70
2023-05-19T01:16:45.083Z,1.80
2023-05-19T01:17:44.953Z,1.80
2023-05-19T01:18:44.996Z,1.70
2023-05-19T01:19:44.904Z,1.60
2023-05-19T01:20:44.909Z,1.40
2023-05-19T01:21:44.908Z,1.70
2023-05-19T01:22:44.898Z,2.00
2023-05-19T01:23:44.858Z,1.70
2023-05-19T01:24:44.951Z,1.90
2023-05-19T01:25:44.881Z,2.10
2023-05-19T01:26:44.832Z,1.90
2023-05-19T01:27:44.834Z,2.30
2023-05-19T01:28:44.817Z,1.50
2023-05-19T01:29:44.798Z,1.80
2023-05-19T01:30:44.836Z,1.90
2023-05-19T01:31:44.827Z,1.90
2023-05-19T01:32:44.790Z,2.40
2023-05-19T01:33:44.766Z,2.50
2023-05-19T01:34:44.752Z,2.00
2023-05-19T01:35:44.752Z,2.10
2023-05-19T01:36:44.751Z,2.20
2023-05-19T01:37:44.745Z,1.60
2023-05-19T01:38:44.746Z,1.50
2023-05-19T01:39:44.749Z,2.40
2023-05-19T01:40:44.722Z,2.10
2023-05-19T01:41:44.686Z,1.80
2023-05-19T01:42:44.702Z,2.00
2023-05-19T01:43:44.657Z,1.90
2023-05-19T01:44:44.669Z,1.90
2023-05-19T01:45:44.652Z,1.80
2023-05-19T01:46:44.632Z,1.70
2023-05-19T01:47:44.641Z,2.10
2023-05-19T01:48:44.653Z,1.70
2023-05-19T01:49:44.633Z,1.70
2023-05-19T01:50:44.641Z,1.80
2023-05-19T01:51:44.578Z,1.80
2023-05-19T01:52:44.559Z,1.90
2023-05-19T01:53:44.584Z,1.90
2023-05-19T01:54:44.561Z,2.10
2023-05-19T01:55:44.557Z,1.70
2023-05-19T01:56:44.540Z,2.30
2023-05-19T01:57:44.522Z,1.90
2023-05-19T01:58:44.544Z,2.00
2023-05-19T01:59:44.517Z,2.20
2023-05-19T02:00:44.474Z,2.20
2023-05-19T02:01:44.601Z,1.90
2023-05-19T02:02:44.541Z,1.80
2023-05-19T02:03:48.367Z,2.10
2023-05-19T02:04:44.576Z,1.70
2023-05-19T02:05:44.435Z,2.10
2023-05-19T02:06:44.423Z,2.20
2023-05-19T02:07:44.487Z,2.00
2023-05-19T02:08:44.409Z,2.40
2023-05-19T02:09:44.386Z,1.90
2023-05-19T02:10:44.420Z,1.90
2023-05-19T02:11:44.390Z,2.20
2023-05-19T02:12:44.380Z,2.10
2023-05-19T02:13:44.359Z,1.70
2023-05-19T02:14:44.347Z,2.20
2023-05-19T02:15:44.347Z,1.80
2023-05-19T02:16:44.351Z,2.20
2023-05-19T02:17:44.361Z,2.30
2023-05-19T02:18:44.376Z,1.60
2023-05-19T02:19:44.280Z,1.90
2023-05-19T02:20:44.303Z,2.40
2023-05-19T02:21:44.292Z,2.10
2023-05-19T02:22:44.261Z,1.80
2023-05-19T02:23:44.238Z,2.50
2023-05-19T02:24:44.241Z,2.00
2023-05-19T02:25:44.236Z,2.20
2023-05-19T02:26:44.251Z,2.10
2023-05-19T02:27:44.207Z,2.40
2023-05-19T02:28:44.195Z,2.20
2023-05-19T02:29:44.170Z,1.80
2023-05-19T02:30:44.213Z,2.30
2023-05-19T02:31:44.294Z,1.80
2023-05-19T02:32:44.194Z,2.90
2023-05-19T02:33:44.132Z,2.00
2023-05-19T02:34:44.152Z,2.30
2023-05-19T02:35:44.145Z,2.10
2023-05-19T02:36:44.111Z,1.90
2023-05-19T02:37:44.085Z,2.00
2023-05-19T02:38:44.088Z,2.20
2023-05-19T02:39:44.070Z,2.30
2023-05-19T02:40:44.097Z,2.10
2023-05-19T02:41:44.055Z,2.20
2023-05-19T02:42:44.062Z,2.20
2023-05-19T02:43:44.033Z,1.90
2023-05-19T02:44:44.051Z,2.20
2023-05-19T02:45:44.048Z,2.20
2023-05-19T02:46:44.173Z,2.30
2023-05-19T02:47:44.049Z,1.80
2023-05-19T02:48:43.978Z,2.20
2023-05-19T02:49:44.011Z,2.40
2023-05-19T02:50:43.969Z,2.00
2023-05-19T02:51:43.969Z,2.10
2023-05-19T02:52:43.937Z,2.10
2023-05-19T02:53:43.944Z,2.00
2023-05-19T02:54:43.949Z,2.00
2023-05-19T02:55:43.921Z,2.10
2023-05-19T02:56:43.907Z,2.00
2023-05-19T02:57:43.893Z,2.20
2023-05-19T02:58:43.872Z,2.30
2023-05-19T02:59:43.909Z,2.20
2023-05-19T03:00:43.859Z,2.10
2023-05-19T03:01:43.938Z,2.10
2023-05-19T03:02:43.943Z,2.20
2023-05-19T03:03:43.944Z,2.30
2023-05-19T03:04:43.857Z,1.90
2023-05-19T03:05:43.815Z,2.00
2023-05-19T03:06:43.798Z,2.20
2023-05-19T03:07:43.797Z,2.40
2023-05-19T03:08:43.786Z,1.70
2023-05-19T03:09:43.804Z,2.10
2023-05-19T03:10:43.754Z,2.50
2023-05-19T03:11:43.796Z,2.00
2023-05-19T03:12:43.773Z,1.60
2023-05-19T03:13:43.777Z,2.30
2023-05-19T03:14:50.229Z,2.00
2023-05-19T03:15:43.710Z,2.40
2023-05-19T03:16:43.941Z,2.00
2023-05-19T03:17:43.870Z,1.90
2023-05-19T03:18:43.718Z,2.30
2023-05-19T03:19:43.670Z,2.30
2023-05-19T03:20:43.671Z,2.20
2023-05-19T03:21:43.657Z,1.90
2023-05-19T03:22:43.672Z,2.20
2023-05-19T03:23:43.637Z,2.40
2023-05-19T03:24:43.632Z,2.00
2023-05-19T03:25:43.620Z,2.60
2023-05-19T03:26:43.595Z,2.10
2023-05-19T03:27:43.618Z,2.50
2023-05-19T03:28:43.606Z,2.10
2023-05-19T03:29:43.587Z,1.80
2023-05-19T03:30:43.558Z,2.10
2023-05-19T03:31:43.573Z,1.70
2023-05-19T03:32:43.620Z,2.50
2023-05-19T03:33:43.586Z,2.30
2023-05-19T03:34:43.513Z,1.80
2023-05-19T03:35:43.497Z,2.00
2023-05-19T03:36:43.534Z,2.00
2023-05-19T03:37:43.487Z,1.70
2023-05-19T03:38:43.523Z,1.60
2023-05-19T03:39:43.470Z,1.80
2023-05-19T03:40:43.471Z,1.70
2023-05-19T03:41:43.485Z,2.40
2023-05-19T03:42:43.458Z,2.30
2023-05-19T03:43:43.429Z,2.30
2023-05-19T03:44:43.429Z,1.90
2023-05-19T03:45:43.465Z,1.80
2023-05-19T03:46:43.411Z,2.10
2023-05-19T03:47:43.415Z,2.90
2023-05-19T03:48:43.389Z,1.70
2023-05-19T03:49:43.391Z,1.80
2023-05-19T03:50:43.376Z,2.30
2023-05-19T03:51:43.337Z,1.90
2023-05-19T03:52:43.342Z,1.50
2023-05-19T03:53:43.323Z,2.60
2023-05-19T03:54:43.327Z,1.70
2023-05-19T03:55:43.317Z,1.80
2023-05-19T03:56:43.308Z,2.00
2023-05-19T03:57:43.279Z,2.10
2023-05-19T03:58:43.263Z,2.30
2023-05-19T03:59:43.320Z,2.30
2023-05-19T04:00:43.257Z,2.10
2023-05-19T04:01:43.280Z,2.00
2023-05-19T04:02:43.353Z,1.70
2023-05-19T04:03:43.294Z,1.80
2023-05-19T04:04:43.240Z,1.80
2023-05-19T04:05:43.189Z,1.80
2023-05-19T04:06:43.201Z,1.90
2023-05-19T04:07:43.180Z,1.80
2023-05-19T04:08:43.204Z,1.70
2023-05-19T04:09:43.167Z,2.30
2023-05-19T04:10:43.143Z,1.60
2023-05-19T04:11:43.123Z,1.80
2023-05-19T04:12:43.117Z,1.80
2023-05-19T04:13:44.543Z,2.00
2023-05-19T04:14:43.101Z,1.80
2023-05-19T04:15:43.109Z,2.10
2023-05-19T04:16:43.088Z,1.70
2023-05-19T04:17:43.103Z,1.70
2023-05-19T04:18:43.102Z,2.00
2023-05-19T04:19:43.080Z,1.60
2023-05-19T04:20:43.064Z,1.70
2023-05-19T04:21:43.054Z,2.00
2023-05-19T04:22:43.043Z,1.70
2023-05-19T04:23:43.034Z,1.70
2023-05-19T04:24:42.997Z,2.20
2023-05-19T04:25:42.997Z,1.70
2023-05-19T04:26:42.983Z,1.40
2023-05-19T04:27:42.981Z,1.90
2023-05-19T04:28:42.982Z,1.40
2023-05-19T04:29:42.935Z,1.70
2023-05-19T04:30:42.962Z,2.10
2023-05-19T04:31:43.008Z,2.10
2023-05-19T04:32:42.949Z,1.90
2023-05-19T04:33:42.921Z,1.90
2023-05-19T04:34:42.913Z,2.30
2023-05-19T04:35:42.881Z,2.50
2023-05-19T04:36:42.909Z,2.00
2023-05-19T04:37:42.889Z,1.70
2023-05-19T04:38:42.867Z,1.60
2023-05-19T04:39:42.834Z,1.90
2023-05-19T04:40:42.854Z,1.80
2023-05-19T04:41:42.841Z,1.90
2023-05-19T04:42:42.800Z,2.20
2023-05-19T04:43:42.801Z,1.40
2023-05-19T04:44:42.820Z,2.00
2023-05-19T04:45:42.848Z,1.70
2023-05-19T04:46:42.874Z,2.00
2023-05-19T04:47:42.841Z,1.50
2023-05-19T04:48:42.809Z,1.60
2023-05-19T04:49:42.746Z,2.20
2023-05-19T04:50:42.719Z,1.70
2023-05-19T04:51:42.755Z,1.60
2023-05-19T04:52:42.722Z,2.00
2023-05-19T04:53:42.708Z,1.40
2023-05-19T04:54:42.696Z,2.00
2023-05-19T04:55:42.720Z,2.20
2023-05-19T04:56:42.690Z,2.00
2023-05-19T04:57:42.651Z,2.00
2023-05-19T04:58:42.660Z,1.80
2023-05-19T04:59:42.647Z,1.80
2023-05-19T05:00:42.637Z,1.60
2023-05-19T05:01:42.632Z,1.80
2023-05-19T05:02:42.655Z,1.90
2023-05-19T05:03:42.657Z,1.50
2023-05-19T05:04:42.623Z,1.90
2023-05-19T05:05:42.645Z,2.30
2023-05-19T05:06:42.549Z,1.80
2023-05-19T05:07:42.572Z,1.20
2023-05-19T05:08:42.543Z,1.90
2023-05-19T05:09:42.562Z,1.80
2023-05-19T05:10:42.528Z,1.50
2023-05-19T05:11:42.513Z,2.20
2023-05-19T05:12:42.514Z,2.00
2023-05-19T05:13:42.500Z,1.70
2023-05-19T05:14:42.501Z,1.90
2023-05-19T05:15:42.488Z,1.80
2023-05-19T05:16:42.550Z,1.70
2023-05-19T05:17:42.496Z,1.70
2023-05-19T05:18:44.303Z,1.50
2023-05-19T05:19:42.490Z,2.00
2023-05-19T05:20:42.412Z,1.50
2023-05-19T05:21:42.400Z,1.90
2023-05-19T05:22:42.405Z,1.50
2023-05-19T05:23:42.408Z,1.60
2023-05-19T05:24:42.396Z,1.90
2023-05-19T05:25:42.434Z,1.80
2023-05-19T05:26:42.346Z,2.30
2023-05-19T05:27:42.357Z,2.50
2023-05-19T05:28:42.379Z,1.70
2023-05-19T05:29:42.345Z,1.70
2023-05-19T05:30:42.332Z,1.60
2023-05-19T05:31:42.310Z,1.40
2023-05-19T05:32:42.419Z,1.20
2023-05-19T05:33:42.363Z,1.30
2023-05-19T05:34:48.262Z,1.20
2023-05-19T05:35:48.763Z,1.80
2023-05-19T05:36:42.248Z,1.30
2023-05-19T05:37:42.257Z,1.60
2023-05-19T05:38:42.256Z,1.60
2023-05-19T05:39:42.230Z,1.70
2023-05-19T05:40:42.227Z,1.40
2023-05-19T05:41:42.199Z,1.60
2023-05-19T05:42:42.219Z,1.30
2023-05-19T05:43:42.171Z,1.30
2023-05-19T05:44:42.178Z,1.30
2023-05-19T05:45:42.198Z,1.50
2023-05-19T05:46:42.145Z,1.30
2023-05-19T05:47:42.227Z,1.60
2023-05-19T05:48:42.209Z,2.20
2023-05-19T05:49:42.114Z,1.60
2023-05-19T05:50:42.101Z,1.50
2023-05-19T05:51:46.343Z,1.30
2023-05-19T05:52:42.141Z,1.20
2023-05-19T05:53:42.094Z,1.20
2023-05-19T05:54:42.075Z,1.20
2023-05-19T05:55:42.058Z,1.50
2023-05-19T05:56:42.077Z,1.40
2023-05-19T05:57:42.079Z,1.40
2023-05-19T05:58:42.041Z,2.00
2023-05-19T05:59:42.034Z,1.50
2023-05-19T06:00:42.021Z,1.60
2023-05-19T06:01:42.044Z,1.30
2023-05-19T06:02:42.059Z,1.40
2023-05-19T06:03:42.043Z,1.50
2023-05-19T06:04:41.971Z,1.80
2023-05-19T06:05:42.006Z,1.90
2023-05-19T06:06:41.975Z,1.50
2023-05-19T06:07:41.957Z,1.50
2023-05-19T06:08:41.940Z,1.30
2023-05-19T06:09:41.949Z,1.20
2023-05-19T06:10:42.162Z,1.10
2023-05-19T06:11:41.905Z,1.40
2023-05-19T06:12:41.901Z,1.50
2023-05-19T06:13:41.871Z,1.40
2023-05-19T06:14:41.884Z,1.50
2023-05-19T06:15:41.922Z,1.70
2023-05-19T06:16:41.870Z,1.90
2023-05-19T06:17:41.860Z,1.30
2023-05-19T06:18:41.828Z,1.50
2023-05-19T06:19:41.835Z,1.50
2023-05-19T06:20:41.816Z,0.80
2023-05-19T06:21:41.795Z,1.10
2023-05-19T06:22:41.771Z,1.10
2023-05-19T06:23:41.774Z,1.20
2023-05-19T06:24:41.778Z,1.20
2023-05-19T06:25:41.795Z,1.30
2023-05-19T06:26:41.776Z,1.10
2023-05-19T06:27:41.742Z,0.90
2023-05-19T06:28:41.732Z,1.20
2023-05-19T06:29:41.727Z,1.10
2023-05-19T06:30:41.732Z,1.40
2023-05-19T06:31:41.728Z,1.20
2023-05-19T06:32:41.705Z,1.40
2023-05-19T06:33:41.691Z,1.00
2023-05-19T06:34:41.674Z,1.20
2023-05-19T06:35:41.667Z,1.40
2023-05-19T06:36:41.679Z,1.10
2023-05-19T06:37:41.619Z,1.30
2023-05-19T06:38:41.680Z,1.30
2023-05-19T06:39:41.624Z,1.20
2023-05-19T06:40:41.595Z,1.10
2023-05-19T06:41:41.589Z,1.20
2023-05-19T06:42:41.584Z,1.20
2023-05-19T06:43:41.559Z,1.00
2023-05-19T06:44:41.598Z,1.00
2023-05-19T06:45:41.543Z,1.40
2023-05-19T06:46:41.558Z,1.30
2023-05-19T06:47:41.617Z,1.40
2023-05-19T06:48:41.550Z,1.30
2023-05-19T06:49:41.525Z,1.30
2023-05-19T06:50:41.498Z,1.40
2023-05-19T06:51:41.490Z,1.40
2023-05-19T06:52:41.459Z,1.40
2023-05-19T06:53:41.510Z,1.10
2023-05-19T06:54:41.466Z,1.30
2023-05-19T06:55:54.328Z,1.20
2023-05-19T06:56:41.436Z,1.50
2023-05-19T06:57:41.424Z,1.30
2023-05-19T06:58:41.449Z,1.30
2023-05-19T06:59:41.388Z,1.50
2023-05-19T07:00:41.394Z,1.50
2023-05-19T07:01:41.445Z,1.30
2023-05-19T07:02:41.407Z,1.10
2023-05-19T07:03:41.534Z,1.50
2023-05-19T07:04:41.354Z,1.20
2023-05-19T07:05:41.381Z,1.50
2023-05-19T07:06:41.519Z,1.50
2023-05-19T07:07:41.326Z,1.30
2023-05-19T07:08:41.333Z,1.10
2023-05-19T07:09:41.304Z,1.40
2023-05-19T07:10:41.302Z,1.40
2023-05-19T07:11:41.284Z,1.60
2023-05-19T07:12:41.288Z,1.60
2023-05-19T07:13:41.249Z,1.50
2023-05-19T07:14:41.242Z,1.20
2023-05-19T07:15:41.238Z,1.70
2023-05-19T07:16:41.290Z,1.60
2023-05-19T07:17:41.350Z,1.90
2023-05-19T07:18:41.230Z,1.60
2023-05-19T07:19:41.215Z,1.20
2023-05-19T07:20:41.207Z,1.60
2023-05-19T07:21:41.177Z,1.90
2023-05-19T07:22:41.225Z,1.60
2023-05-19T07:23:41.141Z,1.60
2023-05-19T07:24:41.150Z,1.40
2023-05-19T07:25:41.135Z,1.80
2023-05-19T07:26:41.157Z,1.60
2023-05-19T07:27:42.510Z,1.40
2023-05-19T07:28:41.812Z,1.80
2023-05-19T07:29:41.084Z,1.60
2023-05-19T07:30:41.098Z,1.40
2023-05-19T07:31:41.223Z,1.50
2023-05-19T07:32:41.095Z,1.80
2023-05-19T07:33:41.042Z,1.80
2023-05-19T07:34:41.063Z,1.80
2023-05-19T07:35:41.039Z,1.80
2023-05-19T07:36:41.034Z,1.60
2023-05-19T07:37:41.040Z,1.60
2023-05-19T07:38:41.043Z,1.80
2023-05-19T07:39:40.986Z,1.30
2023-05-19T07:40:41.064Z,1.50
2023-05-19T07:41:40.997Z,1.80
2023-05-19T07:42:40.964Z,1.50
2023-05-19T07:43:40.949Z,1.10
2023-05-19T07:44:40.946Z,1.50
2023-05-19T07:45:41.000Z,1.50
2023-05-19T07:46:41.108Z,1.70
2023-05-19T07:47:40.923Z,1.40
2023-05-19T07:48:40.887Z,1.50
2023-05-19T07:49:40.893Z,1.50
2023-05-19T07:50:40.887Z,1.30
2023-05-19T07:51:40.848Z,1.80
2023-05-19T07:52:40.903Z,1.50
2023-05-19T07:53:40.840Z,1.40
2023-05-19T07:54:40.846Z,1.40
2023-05-19T07:55:48.511Z,1.20
2023-05-19T07:58:06.815Z,1.30
2023-05-19T07:58:17.224Z,1.50
2023-05-19T07:59:12.208Z,1.70
2023-05-19T08:00:12.226Z,1.20
2023-05-19T08:01:12.210Z,1.70
2023-05-19T08:02:12.205Z,1.40
2023-05-19T08:03:12.280Z,1.70
2023-05-19T08:04:13.207Z,1.60
2023-05-19T08:05:12.188Z,1.20
2023-05-19T08:06:12.142Z,1.00
2023-05-19T08:07:12.152Z,1.80
2023-05-19T08:08:12.172Z,1.30
2023-05-19T08:09:12.138Z,1.10
2023-05-19T08:10:12.122Z,1.40
2023-05-19T08:11:12.099Z,1.20
2023-05-19T08:12:12.079Z,1.40
2023-05-19T08:13:12.068Z,1.60
2023-05-19T08:14:12.141Z,1.50
2023-05-19T08:15:12.126Z,1.30
2023-05-19T08:16:12.094Z,1.30
2023-05-19T08:17:12.052Z,1.40
2023-05-19T08:18:12.221Z,1.80
2023-05-19T08:19:12.103Z,1.90
2023-05-19T08:20:12.070Z,1.40
2023-05-19T08:21:12.027Z,1.10
2023-05-19T08:22:11.975Z,1.30
2023-05-19T08:23:12.040Z,1.40
2023-05-19T08:24:11.976Z,1.20
2023-05-19T08:25:11.951Z,1.30
2023-05-19T08:26:11.943Z,1.20
2023-05-19T08:27:12.154Z,1.60
2023-05-19T08:28:11.958Z,1.10
2023-05-19T08:29:11.944Z,1.00
2023-05-19T08:30:11.932Z,1.10
2023-05-19T08:31:11.949Z,1.10
2023-05-19T08:32:13.314Z,1.00
2023-05-19T08:33:12.004Z,1.00
2023-05-19T08:34:11.867Z,1.10
2023-05-19T08:35:11.849Z,1.50
2023-05-19T08:36:11.851Z,1.50
2023-05-19T08:37:11.852Z,1.50
2023-05-19T08:38:11.832Z,1.00
2023-05-19T08:39:11.796Z,1.00
2023-05-19T08:40:11.842Z,1.20
2023-05-19T08:41:11.928Z,1.20
2023-05-19T08:42:11.795Z,1.10
2023-05-19T08:43:11.810Z,1.00
2023-05-19T08:44:11.782Z,1.30
2023-05-19T08:45:11.735Z,1.00
2023-05-19T08:46:11.768Z,1.00
2023-05-19T08:47:11.786Z,1.00
2023-05-19T08:48:11.797Z,1.30
2023-05-19T08:49:11.697Z,1.40
2023-05-19T08:50:11.722Z,1.20
2023-05-19T08:51:11.674Z,1.20
2023-05-19T08:52:11.700Z,1.10
2023-05-19T08:53:21.385Z,1.20
2023-05-19T08:54:11.651Z,0.90
2023-05-19T08:55:11.656Z,1.00
2023-05-19T08:56:11.629Z,1.00
2023-05-19T08:57:11.685Z,1.40
2023-05-19T08:58:11.608Z,0.80
2023-05-19T08:59:11.605Z,1.00
2023-05-19T09:00:11.613Z,1.10
2023-05-19T09:01:11.693Z,0.70
2023-05-19T09:02:11.595Z,1.40
2023-05-19T09:04:11.624Z,1.70
2023-05-19T09:05:11.590Z,0.90
2023-05-19T09:06:11.570Z,1.10
2023-05-19T09:07:11.540Z,1.30
2023-05-19T09:08:11.516Z,1.00
2023-05-19T09:09:11.510Z,0.80
2023-05-19T09:10:11.488Z,0.80
2023-05-19T09:11:11.506Z,1.10
2023-05-19T09:12:11.485Z,1.10
2023-05-19T09:13:11.461Z,0.80
2023-05-19T09:14:11.519Z,0.70
2023-05-19T09:15:11.461Z,1.20
2023-05-19T09:16:11.482Z,0.90
2023-05-19T09:17:11.524Z,0.90
2023-05-19T09:18:11.422Z,0.90
2023-05-19T09:19:11.404Z,0.90
2023-05-19T09:20:11.402Z,0.80
2023-05-19T09:21:11.384Z,0.80
2023-05-19T09:22:11.362Z,1.20
2023-05-19T09:23:11.367Z,0.90
2023-05-19T09:24:11.353Z,0.90
2023-05-19T09:25:11.358Z,1.10
2023-05-19T09:26:11.328Z,0.80
2023-05-19T09:27:11.300Z,1.00
2023-05-19T09:28:11.301Z,0.90
2023-05-19T09:29:11.313Z,1.20
2023-05-19T09:30:11.308Z,1.00
2023-05-19T09:31:11.312Z,0.90
2023-05-19T09:32:11.291Z,0.90
2023-05-19T09:33:11.307Z,0.90
2023-05-19T09:34:11.286Z,0.90
2023-05-19T09:35:11.226Z,0.90
2023-05-19T09:36:11.241Z,0.80
2023-05-19T09:37:11.204Z,1.00
2023-05-19T09:38:11.209Z,0.90
2023-05-19T09:39:11.216Z,0.70
2023-05-19T09:40:11.918Z,1.40
2023-05-19T09:41:11.177Z,0.90
2023-05-19T09:42:11.164Z,0.80
2023-05-19T09:43:11.149Z,1.10
2023-05-19T09:44:11.161Z,1.00
2023-05-19T09:45:11.113Z,1.00
2023-05-19T09:46:12.949Z,1.20
2023-05-19T09:47:11.136Z,1.10
2023-05-19T09:48:11.114Z,0.90
2023-05-19T09:49:11.102Z,0.80
2023-05-19T09:50:11.074Z,0.90
2023-05-19T09:51:11.168Z,0.70
2023-05-19T09:52:11.201Z,0.90
2023-05-19T09:53:11.062Z,0.90
2023-05-19T09:54:11.026Z,0.70
2023-05-19T09:55:11.031Z,1.10
2023-05-19T09:56:11.067Z,1.10
2023-05-19T09:57:10.992Z,0.80
2023-05-19T09:58:12.810Z,0.80
2023-05-19T09:59:10.972Z,1.10
2023-05-19T10:00:10.969Z,0.80
2023-05-19T10:01:10.974Z,1.20
2023-05-19T10:02:11.029Z,1.00
2023-05-19T10:03:11.059Z,1.40
2023-05-19T10:04:10.943Z,1.10
2023-05-19T10:05:10.991Z,1.20
2023-05-19T10:06:10.936Z,0.90
2023-05-19T10:07:10.913Z,0.80
2023-05-19T10:08:10.928Z,0.80
2023-05-19T10:09:10.880Z,1.00
2023-05-19T10:10:10.870Z,0.80
2023-05-19T10:11:10.882Z,1.20
2023-05-19T10:12:10.884Z,1.20
2023-05-19T10:13:10.838Z,0.80
2023-05-19T10:14:10.848Z,0.90
2023-05-19T10:15:10.822Z,0.70
2023-05-19T10:16:10.866Z,0.70
2023-05-19T10:17:10.815Z,1.00
2023-05-19T10:18:10.830Z,0.80
2023-05-19T10:19:10.842Z,0.90
2023-05-19T10:20:10.781Z,1.30
2023-05-19T10:21:18.585Z,1.30
2023-05-19T10:22:17.258Z,1.00
2023-05-19T10:23:10.733Z,0.80
2023-05-19T10:24:11.623Z,0.90
2023-05-19T10:25:10.716Z,0.70
2023-05-19T10:26:10.738Z,1.30
2023-05-19T10:27:10.683Z,1.10
2023-05-19T10:28:10.687Z,1.10
2023-05-19T10:29:10.681Z,0.80
2023-05-19T10:30:12.444Z,1.30
2023-05-19T10:31:10.679Z,0.80
2023-05-19T10:32:10.740Z,1.20
2023-05-19T10:33:10.693Z,0.90
2023-05-19T10:34:10.627Z,1.00
2023-05-19T10:35:10.632Z,0.90
2023-05-19T10:36:10.630Z,1.00
2023-05-19T10:37:10.599Z,0.80
2023-05-19T10:38:10.583Z,1.00
2023-05-19T10:39:10.560Z,0.90
2023-05-19T10:40:10.585Z,1.00
2023-05-19T10:41:10.548Z,0.80
2023-05-19T10:42:10.545Z,0.80
2023-05-19T10:43:10.532Z,1.00
2023-05-19T10:44:10.544Z,1.20
2023-05-19T10:45:10.528Z,1.00
2023-05-19T10:46:10.502Z,0.70
2023-05-19T10:47:10.571Z,0.90
2023-05-19T10:48:10.535Z,1.30
2023-05-19T10:49:10.486Z,1.10
2023-05-19T10:50:10.477Z,0.60
2023-05-19T10:51:10.452Z,1.10
2023-05-19T10:52:10.458Z,1.10
2023-05-19T10:53:10.428Z,1.40
2023-05-19T10:54:12.118Z,1.30
2023-05-19T10:55:10.428Z,0.90
2023-05-19T10:56:10.395Z,0.90
2023-05-19T10:57:10.390Z,0.90
2023-05-19T10:58:10.402Z,0.80
2023-05-19T10:59:10.375Z,1.10
2023-05-19T11:00:10.368Z,0.90
2023-05-19T11:01:10.369Z,0.80
2023-05-19T11:02:10.442Z,1.00
2023-05-19T11:03:10.380Z,1.10
2023-05-19T11:04:10.360Z,0.90
2023-05-19T11:05:10.327Z,0.80
2023-05-19T11:06:10.303Z,0.90
2023-05-19T11:07:10.300Z,1.00
2023-05-19T11:08:10.303Z,1.00
2023-05-19T11:09:10.359Z,1.30
2023-05-19T11:10:10.282Z,1.00
2023-05-19T11:11:10.255Z,1.30
2023-05-19T11:12:10.291Z,1.10
2023-05-19T11:13:10.258Z,1.40
2023-05-19T11:14:10.236Z,1.00
2023-05-19T11:15:10.214Z,1.00
2023-05-19T11:16:10.245Z,0.80
2023-05-19T11:17:10.236Z,0.80
2023-05-19T11:18:10.243Z,1.00
2023-05-19T11:19:10.185Z,1.00
2023-05-19T11:20:10.156Z,0.90
2023-05-19T11:21:10.201Z,0.60
2023-05-19T11:22:10.170Z,0.80
2023-05-19T11:23:10.211Z,1.30
2023-05-19T11:24:10.126Z,0.90
2023-05-19T11:25:10.122Z,0.70
2023-05-19T11:26:10.132Z,0.90
2023-05-19T11:27:10.110Z,1.00
2023-05-19T11:28:10.065Z,1.00
2023-05-19T11:29:10.057Z,1.10
2023-05-19T11:30:10.064Z,1.10
2023-05-19T11:31:10.086Z,0.90
2023-05-19T11:32:10.127Z,1.10
2023-05-19T11:33:10.066Z,1.20
2023-05-19T11:34:10.011Z,1.10
2023-05-19T11:35:10.025Z,0.80
2023-05-19T11:36:10.018Z,1.00
2023-05-19T11:37:09.982Z,1.00
2023-05-19T11:38:09.984Z,1.10
2023-05-19T11:39:09.953Z,0.90
2023-05-19T11:40:09.987Z,1.20
2023-05-19T11:41:09.993Z,1.10
2023-05-19T11:42:09.943Z,0.90
2023-05-19T11:43:09.911Z,0.90
2023-05-19T11:44:09.896Z,1.10
2023-05-19T11:45:09.914Z,1.30
2023-05-19T11:46:09.943Z,1.20
2023-05-19T11:47:09.903Z,1.00
2023-05-19T11:48:09.883Z,0.90
2023-05-19T11:49:09.876Z,0.80
2023-05-19T11:50:09.862Z,0.90
2023-05-19T11:51:09.830Z,0.80
2023-05-19T11:52:09.827Z,1.30
2023-05-19T11:53:09.906Z,0.80
2023-05-19T11:54:09.864Z,1.00
2023-05-19T11:55:09.821Z,1.00
2023-05-19T11:56:09.792Z,1.30
2023-05-19T11:57:09.773Z,0.90
2023-05-19T11:58:09.768Z,1.10
2023-05-19T11:59:09.783Z,0.90
2023-05-19T12:00:09.753Z,0.90
2023-05-19T12:01:09.732Z,1.10
2023-05-19T12:02:09.749Z,1.30
2023-05-19T12:03:10.108Z,0.90
2023-05-19T12:04:09.727Z,1.50
2023-05-19T12:05:09.740Z,1.60
2023-05-19T12:06:09.990Z,0.80
2023-05-19T12:07:09.652Z,1.00
2023-05-19T12:08:09.649Z,1.10
2023-05-19T12:09:09.701Z,1.00
2023-05-19T12:10:09.672Z,1.00
2023-05-19T12:11:09.621Z,1.10
2023-05-19T12:12:09.624Z,1.10
2023-05-19T12:13:10.290Z,1.50
2023-05-19T12:14:09.613Z,0.90
2023-05-19T12:15:09.615Z,1.40
2023-05-19T12:16:09.625Z,1.10
2023-05-19T12:17:09.555Z,1.00
2023-05-19T12:18:09.611Z,0.70
2023-05-19T12:19:09.611Z,1.20
2023-05-19T12:20:09.517Z,1.00
2023-05-19T12:21:09.514Z,1.10
2023-05-19T12:22:09.511Z,0.90
2023-05-19T12:23:09.555Z,1.60
2023-05-19T12:24:09.513Z,1.00
2023-05-19T12:25:09.465Z,0.90
2023-05-19T12:26:09.460Z,1.00
2023-05-19T12:27:09.478Z,1.10
2023-05-19T12:28:09.467Z,1.30
2023-05-19T12:29:09.451Z,1.20
2023-05-19T12:30:09.495Z,1.00
2023-05-19T12:31:09.438Z,1.30
2023-05-19T12:32:09.499Z,1.10
2023-05-19T12:33:09.456Z,1.10
2023-05-19T12:34:09.370Z,1.70
2023-05-19T12:35:09.377Z,1.20
2023-05-19T12:36:09.363Z,1.20
2023-05-19T12:37:09.650Z,1.30
2023-05-19T12:38:09.338Z,1.00
2023-05-19T12:39:09.615Z,1.20
2023-05-19T12:40:09.388Z,0.90
2023-05-19T12:41:09.339Z,0.90
2023-05-19T12:42:09.321Z,1.40
2023-05-19T12:43:09.282Z,1.00
2023-05-19T12:44:09.257Z,0.90
2023-05-19T12:45:09.283Z,0.80
2023-05-19T12:46:09.335Z,0.90
2023-05-19T12:47:09.246Z,1.00
2023-05-19T12:48:09.283Z,1.40
2023-05-19T12:49:09.212Z,1.20
2023-05-19T12:50:09.317Z,0.90
2023-05-19T12:51:09.301Z,1.30
2023-05-19T12:52:12.920Z,0.90
2023-05-19T12:53:09.188Z,1.30
2023-05-19T12:54:09.219Z,0.90
2023-05-19T12:55:09.165Z,0.90
2023-05-19T12:56:09.161Z,1.10
2023-05-19T12:57:09.346Z,0.90
2023-05-19T12:58:09.152Z,1.70
2023-05-19T12:59:09.186Z,0.90
2023-05-19T13:00:09.217Z,1.30
2023-05-19T13:01:09.204Z,0.90
2023-05-19T13:02:09.257Z,1.00
2023-05-19T13:03:09.163Z,1.10
2023-05-19T13:04:09.201Z,1.00
2023-05-19T13:05:09.151Z,1.50
2023-05-19T13:06:09.080Z,1.00
2023-05-19T13:07:09.042Z,1.20
2023-05-19T13:08:09.101Z,1.10
2023-05-19T13:09:09.004Z,1.10
2023-05-19T13:10:09.035Z,1.20
2023-05-19T13:11:08.980Z,1.20
2023-05-19T13:12:09.012Z,1.10
2023-05-19T13:13:09.029Z,1.40
2023-05-19T13:14:08.967Z,1.30
2023-05-19T13:15:09.029Z,1.30
2023-05-19T13:16:08.953Z,1.00
2023-05-19T13:17:09.148Z,1.10
2023-05-19T13:18:09.193Z,1.00
2023-05-19T13:19:21.168Z,1.10
2023-05-19T13:20:08.942Z,1.20